sensor_id;sensor_type;location;lat;lon;timestamp;temperature;humidity
23715;DHT22;12036;50.858;4.472;2023-07-31T00:00:28;16.70;99.90
23715;DHT22;12036;50.858;4.472;2023-07-31T00:02:54;16.80;99.90
23715;DHT22;12036;50.858;4.472;2023-07-31T00:05:20;16.80;99.90
23715;DHT22;12036;50.858;4.472;2023-07-31T00:07:46;16.80;99.90
23715;DHT22;12036;50.858;4.472;2023-07-31T00:10:12;16.90;99.90
23715;DHT22;12036;50.858;4.472;2023-07-31T00:12:43;16.90;99.90
23715;DHT22;12036;50.858;4.472;2023-07-31T00:15:09;16.90;99.90
23715;DHT22;12036;50.858;4.472;2023-07-31T00:17:35;16.80;99.90
23715;DHT22;12036;50.858;4.472;2023-07-31T00:20:01;16.90;99.90
23715;DHT22;12036;50.858;4.472;2023-07-31T00:22:27;16.80;99.90
23715;DHT22;12036;50.858;4.472;2023-07-31T00:24:53;16.90;99.90
23715;DHT22;12036;50.858;4.472;2023-07-31T00:27:19;16.90;99.90
23715;DHT22;12036;50.858;4.472;2023-07-31T00:29:44;16.90;99.90
23715;DHT22;12036;50.858;4.472;2023-07-31T00:32:10;16.80;99.90
23715;DHT22;12036;50.858;4.472;2023-07-31T00:34:35;16.80;99.90
23715;DHT22;12036;50.858;4.472;2023-07-31T00:37:01;16.90;99.90
23715;DHT22;12036;50.858;4.472;2023-07-31T00:39:27;17.00;99.90
23715;DHT22;12036;50.858;4.472;2023-07-31T00:41:52;17.00;99.90
23715;DHT22;12036;50.858;4.472;2023-07-31T00:44:18;17.00;99.90
23715;DHT22;12036;50.858;4.472;2023-07-31T00:46:44;17.10;99.90
23715;DHT22;12036;50.858;4.472;2023-07-31T00:49:10;17.00;99.90
23715;DHT22;12036;50.858;4.472;2023-07-31T00:51:36;17.00;99.90
23715;DHT22;12036;50.858;4.472;2023-07-31T00:54:03;17.00;99.90
23715;DHT22;12036;50.858;4.472;2023-07-31T00:56:29;17.00;99.90
23715;DHT22;12036;50.858;4.472;2023-07-31T00:58:55;17.10;99.90
23715;DHT22;12036;50.858;4.472;2023-07-31T01:01:21;17.10;99.90
23715;DHT22;12036;50.858;4.472;2023-07-31T01:03:48;17.10;99.90
23715;DHT22;12036;50.858;4.472;2023-07-31T01:06:51;17.20;99.90
23715;DHT22;12036;50.858;4.472;2023-07-31T01:09:40;17.20;99.90
23715;DHT22;12036;50.858;4.472;2023-07-31T01:12:09;17.30;99.90
23715;DHT22;12036;50.858;4.472;2023-07-31T01:14:36;17.20;99.90
23715;DHT22;12036;50.858;4.472;2023-07-31T01:17:01;17.20;99.90
23715;DHT22;12036;50.858;4.472;2023-07-31T01:19:27;17.20;99.90
23715;DHT22;12036;50.858;4.472;2023-07-31T01:22:17;17.10;99.90
23715;DHT22;12036;50.858;4.472;2023-07-31T01:27:35;17.10;99.90
23715;DHT22;12036;50.858;4.472;2023-07-31T01:30:15;17.00;99.90
23715;DHT22;12036;50.858;4.472;2023-07-31T01:32:42;17.00;99.90
23715;DHT22;12036;50.858;4.472;2023-07-31T01:35:09;17.00;99.90
23715;DHT22;12036;50.858;4.472;2023-07-31T01:37:34;17.10;99.90
23715;DHT22;12036;50.858;4.472;2023-07-31T01:40:00;17.10;99.90
23715;DHT22;12036;50.858;4.472;2023-07-31T01:42:26;17.10;99.90
23715;DHT22;12036;50.858;4.472;2023-07-31T01:44:51;17.00;99.90
23715;DHT22;12036;50.858;4.472;2023-07-31T01:47:17;17.00;99.90
23715;DHT22;12036;50.858;4.472;2023-07-31T01:49:43;17.10;99.90
23715;DHT22;12036;50.858;4.472;2023-07-31T01:52:08;17.10;99.90
23715;DHT22;12036;50.858;4.472;2023-07-31T01:54:34;17.00;99.90
23715;DHT22;12036;50.858;4.472;2023-07-31T01:56:59;17.10;99.90
23715;DHT22;12036;50.858;4.472;2023-07-31T01:59:25;17.10;99.90
23715;DHT22;12036;50.858;4.472;2023-07-31T02:01:51;17.20;99.90
23715;DHT22;12036;50.858;4.472;2023-07-31T02:04:16;17.20;99.90
23715;DHT22;12036;50.858;4.472;2023-07-31T02:06:43;17.30;99.90
23715;DHT22;12036;50.858;4.472;2023-07-31T02:09:09;17.20;99.90
23715;DHT22;12036;50.858;4.472;2023-07-31T02:11:34;17.10;99.90
23715;DHT22;12036;50.858;4.472;2023-07-31T02:14:00;17.10;99.90
23715;DHT22;12036;50.858;4.472;2023-07-31T02:16:26;17.20;99.90
23715;DHT22;12036;50.858;4.472;2023-07-31T02:18:51;17.20;99.90
23715;DHT22;12036;50.858;4.472;2023-07-31T02:21:17;17.00;99.90
23715;DHT22;12036;50.858;4.472;2023-07-31T02:23:42;17.10;99.90
23715;DHT22;12036;50.858;4.472;2023-07-31T02:26:08;17.10;99.90
23715;DHT22;12036;50.858;4.472;2023-07-31T02:28:34;17.10;99.90
23715;DHT22;12036;50.858;4.472;2023-07-31T02:30:59;17.20;99.90
23715;DHT22;12036;50.858;4.472;2023-07-31T02:33:25;17.30;99.90
23715;DHT22;12036;50.858;4.472;2023-07-31T02:35:51;17.30;99.90
23715;DHT22;12036;50.858;4.472;2023-07-31T02:38:16;17.20;99.90
23715;DHT22;12036;50.858;4.472;2023-07-31T02:40:42;17.10;99.90
23715;DHT22;12036;50.858;4.472;2023-07-31T02:43:08;17.20;99.90
23715;DHT22;12036;50.858;4.472;2023-07-31T02:45:34;17.20;99.90
23715;DHT22;12036;50.858;4.472;2023-07-31T02:48:00;17.10;99.90
23715;DHT22;12036;50.858;4.472;2023-07-31T02:50:25;17.10;99.90
23715;DHT22;12036;50.858;4.472;2023-07-31T02:52:53;17.20;99.90
23715;DHT22;12036;50.858;4.472;2023-07-31T02:55:18;17.20;99.90
23715;DHT22;12036;50.858;4.472;2023-07-31T02:57:44;17.20;99.90
23715;DHT22;12036;50.858;4.472;2023-07-31T03:00:10;17.20;99.90
23715;DHT22;12036;50.858;4.472;2023-07-31T03:02:35;17.20;99.90
23715;DHT22;12036;50.858;4.472;2023-07-31T03:05:01;17.10;99.90
23715;DHT22;12036;50.858;4.472;2023-07-31T03:07:27;17.10;99.90
23715;DHT22;12036;50.858;4.472;2023-07-31T03:09:52;17.10;99.90
23715;DHT22;12036;50.858;4.472;2023-07-31T03:12:18;17.20;99.90
23715;DHT22;12036;50.858;4.472;2023-07-31T03:14:45;17.20;99.90
23715;DHT22;12036;50.858;4.472;2023-07-31T03:17:10;17.20;99.90
23715;DHT22;12036;50.858;4.472;2023-07-31T03:19:36;17.20;99.90
23715;DHT22;12036;50.858;4.472;2023-07-31T03:22:01;17.20;99.90
23715;DHT22;12036;50.858;4.472;2023-07-31T03:24:28;17.30;99.90
23715;DHT22;12036;50.858;4.472;2023-07-31T03:26:54;17.30;99.90
23715;DHT22;12036;50.858;4.472;2023-07-31T03:29:20;17.30;99.90
23715;DHT22;12036;50.858;4.472;2023-07-31T03:31:46;17.20;99.90
23715;DHT22;12036;50.858;4.472;2023-07-31T03:34:11;17.20;99.90
23715;DHT22;12036;50.858;4.472;2023-07-31T03:36:37;17.10;99.90
23715;DHT22;12036;50.858;4.472;2023-07-31T03:39:03;17.10;99.90
23715;DHT22;12036;50.858;4.472;2023-07-31T03:41:28;17.10;99.90
23715;DHT22;12036;50.858;4.472;2023-07-31T03:43:54;17.10;99.90
23715;DHT22;12036;50.858;4.472;2023-07-31T03:46:23;17.10;99.90
23715;DHT22;12036;50.858;4.472;2023-07-31T03:48:49;17.00;99.90
23715;DHT22;12036;50.858;4.472;2023-07-31T03:51:15;17.00;99.90
23715;DHT22;12036;50.858;4.472;2023-07-31T03:53:42;16.90;99.90
23715;DHT22;12036;50.858;4.472;2023-07-31T03:56:07;16.90;99.90
23715;DHT22;12036;50.858;4.472;2023-07-31T03:58:33;16.90;99.90
23715;DHT22;12036;50.858;4.472;2023-07-31T04:00:58;16.80;99.90
23715;DHT22;12036;50.858;4.472;2023-07-31T04:03:24;16.80;99.90
23715;DHT22;12036;50.858;4.472;2023-07-31T04:05:50;16.80;99.90
23715;DHT22;12036;50.858;4.472;2023-07-31T04:08:15;16.80;99.90
23715;DHT22;12036;50.858;4.472;2023-07-31T04:10:41;16.80;99.90
23715;DHT22;12036;50.858;4.472;2023-07-31T04:13:06;16.80;99.90
23715;DHT22;12036;50.858;4.472;2023-07-31T04:15:32;16.80;99.90
23715;DHT22;12036;50.858;4.472;2023-07-31T04:17:58;16.70;99.90
23715;DHT22;12036;50.858;4.472;2023-07-31T04:20:23;16.60;99.90
23715;DHT22;12036;50.858;4.472;2023-07-31T04:22:49;16.60;99.90
23715;DHT22;12036;50.858;4.472;2023-07-31T04:25:15;16.60;99.90
23715;DHT22;12036;50.858;4.472;2023-07-31T04:27:40;16.50;99.90
23715;DHT22;12036;50.858;4.472;2023-07-31T04:30:06;16.50;99.90
23715;DHT22;12036;50.858;4.472;2023-07-31T04:32:32;16.50;99.90
23715;DHT22;12036;50.858;4.472;2023-07-31T04:34:58;16.60;99.90
23715;DHT22;12036;50.858;4.472;2023-07-31T04:37:23;16.50;99.90
23715;DHT22;12036;50.858;4.472;2023-07-31T04:39:49;16.50;99.90
23715;DHT22;12036;50.858;4.472;2023-07-31T04:42:15;16.40;99.90
23715;DHT22;12036;50.858;4.472;2023-07-31T04:44:40;16.50;99.90
23715;DHT22;12036;50.858;4.472;2023-07-31T04:47:06;16.50;99.90
23715;DHT22;12036;50.858;4.472;2023-07-31T04:49:32;16.60;99.90
23715;DHT22;12036;50.858;4.472;2023-07-31T04:51:58;16.60;99.90
23715;DHT22;12036;50.858;4.472;2023-07-31T04:54:23;16.60;99.90
23715;DHT22;12036;50.858;4.472;2023-07-31T04:56:49;16.60;99.90
23715;DHT22;12036;50.858;4.472;2023-07-31T04:59:15;16.60;99.90
23715;DHT22;12036;50.858;4.472;2023-07-31T05:01:40;16.60;99.90
23715;DHT22;12036;50.858;4.472;2023-07-31T05:04:06;16.60;99.90
23715;DHT22;12036;50.858;4.472;2023-07-31T05:06:32;16.70;99.90
23715;DHT22;12036;50.858;4.472;2023-07-31T05:08:57;16.60;99.90
23715;DHT22;12036;50.858;4.472;2023-07-31T05:11:23;16.60;99.90
23715;DHT22;12036;50.858;4.472;2023-07-31T05:13:49;16.60;99.90
23715;DHT22;12036;50.858;4.472;2023-07-31T05:16:14;16.50;99.90
23715;DHT22;12036;50.858;4.472;2023-07-31T05:18:40;16.50;99.90
23715;DHT22;12036;50.858;4.472;2023-07-31T05:21:05;16.50;99.90
23715;DHT22;12036;50.858;4.472;2023-07-31T05:23:31;16.50;99.90
23715;DHT22;12036;50.858;4.472;2023-07-31T05:26:07;16.40;99.90
23715;DHT22;12036;50.858;4.472;2023-07-31T05:28:35;16.40;99.90
23715;DHT22;12036;50.858;4.472;2023-07-31T05:31:02;16.40;99.90
23715;DHT22;12036;50.858;4.472;2023-07-31T05:33:28;16.40;99.90
23715;DHT22;12036;50.858;4.472;2023-07-31T05:35:54;16.30;99.90
23715;DHT22;12036;50.858;4.472;2023-07-31T05:38:19;16.20;99.90
23715;DHT22;12036;50.858;4.472;2023-07-31T05:40:45;16.20;99.90
23715;DHT22;12036;50.858;4.472;2023-07-31T05:43:11;16.20;99.90
23715;DHT22;12036;50.858;4.472;2023-07-31T05:45:37;16.20;99.90
23715;DHT22;12036;50.858;4.472;2023-07-31T05:48:03;16.20;99.90
23715;DHT22;12036;50.858;4.472;2023-07-31T05:50:30;16.20;99.90
23715;DHT22;12036;50.858;4.472;2023-07-31T05:52:55;16.30;99.90
23715;DHT22;12036;50.858;4.472;2023-07-31T05:55:21;16.20;99.90
23715;DHT22;12036;50.858;4.472;2023-07-31T05:57:47;16.20;99.90
23715;DHT22;12036;50.858;4.472;2023-07-31T06:00:13;16.20;99.90
23715;DHT22;12036;50.858;4.472;2023-07-31T06:02:39;16.20;99.90
23715;DHT22;12036;50.858;4.472;2023-07-31T06:05:05;16.30;99.90
23715;DHT22;12036;50.858;4.472;2023-07-31T06:07:31;16.20;99.90
23715;DHT22;12036;50.858;4.472;2023-07-31T06:09:57;16.20;99.90
23715;DHT22;12036;50.858;4.472;2023-07-31T06:12:28;16.30;99.90
23715;DHT22;12036;50.858;4.472;2023-07-31T06:14:54;16.30;99.90
23715;DHT22;12036;50.858;4.472;2023-07-31T06:17:20;16.20;99.90
23715;DHT22;12036;50.858;4.472;2023-07-31T06:19:46;16.20;99.90
23715;DHT22;12036;50.858;4.472;2023-07-31T06:22:12;16.30;99.90
23715;DHT22;12036;50.858;4.472;2023-07-31T06:24:38;16.40;99.90
23715;DHT22;12036;50.858;4.472;2023-07-31T06:27:04;16.50;99.90
23715;DHT22;12036;50.858;4.472;2023-07-31T06:29:31;16.40;99.90
23715;DHT22;12036;50.858;4.472;2023-07-31T06:31:57;16.50;99.90
23715;DHT22;12036;50.858;4.472;2023-07-31T06:34:22;16.60;99.90
23715;DHT22;12036;50.858;4.472;2023-07-31T06:36:48;16.60;99.90
23715;DHT22;12036;50.858;4.472;2023-07-31T06:39:14;16.60;99.90
23715;DHT22;12036;50.858;4.472;2023-07-31T06:41:39;16.70;99.90
23715;DHT22;12036;50.858;4.472;2023-07-31T06:44:05;16.70;99.90
23715;DHT22;12036;50.858;4.472;2023-07-31T06:46:31;16.70;99.90
23715;DHT22;12036;50.858;4.472;2023-07-31T06:48:56;16.80;99.90
23715;DHT22;12036;50.858;4.472;2023-07-31T06:51:22;16.70;99.90
23715;DHT22;12036;50.858;4.472;2023-07-31T06:53:47;16.90;99.90
23715;DHT22;12036;50.858;4.472;2023-07-31T06:56:13;16.90;99.90
23715;DHT22;12036;50.858;4.472;2023-07-31T06:58:39;17.00;99.90
23715;DHT22;12036;50.858;4.472;2023-07-31T07:01:05;17.00;99.90
23715;DHT22;12036;50.858;4.472;2023-07-31T07:03:30;17.00;99.90
23715;DHT22;12036;50.858;4.472;2023-07-31T07:05:56;17.20;99.90
23715;DHT22;12036;50.858;4.472;2023-07-31T07:08:22;17.10;99.90
23715;DHT22;12036;50.858;4.472;2023-07-31T07:10:47;17.20;99.90
23715;DHT22;12036;50.858;4.472;2023-07-31T07:13:13;17.20;99.90
23715;DHT22;12036;50.858;4.472;2023-07-31T07:15:39;17.30;99.90
23715;DHT22;12036;50.858;4.472;2023-07-31T07:18:04;17.40;99.90
23715;DHT22;12036;50.858;4.472;2023-07-31T07:20:30;17.50;99.90
23715;DHT22;12036;50.858;4.472;2023-07-31T07:22:56;17.40;99.90
23715;DHT22;12036;50.858;4.472;2023-07-31T07:25:21;17.60;99.90
23715;DHT22;12036;50.858;4.472;2023-07-31T07:27:47;17.80;99.90
23715;DHT22;12036;50.858;4.472;2023-07-31T07:30:13;17.80;99.90
23715;DHT22;12036;50.858;4.472;2023-07-31T07:32:39;17.70;99.90
23715;DHT22;12036;50.858;4.472;2023-07-31T07:35:06;17.70;99.90
23715;DHT22;12036;50.858;4.472;2023-07-31T07:37:32;17.80;99.90
23715;DHT22;12036;50.858;4.472;2023-07-31T07:39:57;17.90;99.90
23715;DHT22;12036;50.858;4.472;2023-07-31T07:42:23;18.00;99.90
23715;DHT22;12036;50.858;4.472;2023-07-31T07:44:49;17.70;99.90
23715;DHT22;12036;50.858;4.472;2023-07-31T07:47:14;17.60;99.90
23715;DHT22;12036;50.858;4.472;2023-07-31T07:49:40;17.70;99.90
23715;DHT22;12036;50.858;4.472;2023-07-31T07:52:06;17.90;99.90
23715;DHT22;12036;50.858;4.472;2023-07-31T07:54:31;18.00;99.90
23715;DHT22;12036;50.858;4.472;2023-07-31T07:56:57;17.90;99.90
23715;DHT22;12036;50.858;4.472;2023-07-31T07:59:23;17.90;99.90
23715;DHT22;12036;50.858;4.472;2023-07-31T08:01:49;17.80;99.90
23715;DHT22;12036;50.858;4.472;2023-07-31T08:04:14;17.90;99.90
23715;DHT22;12036;50.858;4.472;2023-07-31T08:06:40;17.90;99.90
23715;DHT22;12036;50.858;4.472;2023-07-31T08:09:06;17.80;99.90
23715;DHT22;12036;50.858;4.472;2023-07-31T08:11:34;17.90;99.90
23715;DHT22;12036;50.858;4.472;2023-07-31T08:14:00;17.90;99.90
23715;DHT22;12036;50.858;4.472;2023-07-31T08:16:26;18.00;99.90
23715;DHT22;12036;50.858;4.472;2023-07-31T08:18:51;18.00;99.90
23715;DHT22;12036;50.858;4.472;2023-07-31T08:21:17;17.80;99.90
23715;DHT22;12036;50.858;4.472;2023-07-31T08:23:43;17.90;99.90
23715;DHT22;12036;50.858;4.472;2023-07-31T08:26:17;17.80;99.90
23715;DHT22;12036;50.858;4.472;2023-07-31T08:28:43;17.90;99.90
23715;DHT22;12036;50.858;4.472;2023-07-31T08:31:09;17.90;99.90
23715;DHT22;12036;50.858;4.472;2023-07-31T08:33:34;17.90;99.90
23715;DHT22;12036;50.858;4.472;2023-07-31T08:36:00;17.90;99.90
23715;DHT22;12036;50.858;4.472;2023-07-31T08:38:27;18.00;99.90
23715;DHT22;12036;50.858;4.472;2023-07-31T08:40:52;17.80;99.90
23715;DHT22;12036;50.858;4.472;2023-07-31T08:43:20;17.80;99.90
23715;DHT22;12036;50.858;4.472;2023-07-31T08:45:47;17.90;99.90
23715;DHT22;12036;50.858;4.472;2023-07-31T08:48:15;17.90;99.90
23715;DHT22;12036;50.858;4.472;2023-07-31T08:50:41;17.90;99.90
23715;DHT22;12036;50.858;4.472;2023-07-31T08:53:07;17.80;99.90
23715;DHT22;12036;50.858;4.472;2023-07-31T08:55:33;17.60;99.90
23715;DHT22;12036;50.858;4.472;2023-07-31T08:58:01;17.60;99.90
23715;DHT22;12036;50.858;4.472;2023-07-31T09:00:29;17.80;99.90
23715;DHT22;12036;50.858;4.472;2023-07-31T09:03:02;17.70;99.90
23715;DHT22;12036;50.858;4.472;2023-07-31T09:05:30;17.70;99.90
23715;DHT22;12036;50.858;4.472;2023-07-31T09:07:57;17.70;99.90
23715;DHT22;12036;50.858;4.472;2023-07-31T09:10:23;17.80;99.90
23715;DHT22;12036;50.858;4.472;2023-07-31T09:12:51;17.90;99.90
23715;DHT22;12036;50.858;4.472;2023-07-31T09:15:17;17.90;99.90
23715;DHT22;12036;50.858;4.472;2023-07-31T09:17:43;18.00;99.90
23715;DHT22;12036;50.858;4.472;2023-07-31T09:20:17;18.00;99.90
23715;DHT22;12036;50.858;4.472;2023-07-31T09:22:44;18.10;99.90
23715;DHT22;12036;50.858;4.472;2023-07-31T09:25:26;18.10;99.90
23715;DHT22;12036;50.858;4.472;2023-07-31T09:27:58;18.00;99.90
23715;DHT22;12036;50.858;4.472;2023-07-31T09:30:23;18.00;99.90
23715;DHT22;12036;50.858;4.472;2023-07-31T09:32:51;17.90;99.90
23715;DHT22;12036;50.858;4.472;2023-07-31T09:35:28;18.20;99.90
23715;DHT22;12036;50.858;4.472;2023-07-31T09:37:57;18.30;99.90
23715;DHT22;12036;50.858;4.472;2023-07-31T09:40:33;18.50;99.90
23715;DHT22;12036;50.858;4.472;2023-07-31T09:43:01;18.50;99.90
23715;DHT22;12036;50.858;4.472;2023-07-31T09:45:27;18.50;99.90
23715;DHT22;12036;50.858;4.472;2023-07-31T09:47:54;18.40;99.90
23715;DHT22;12036;50.858;4.472;2023-07-31T09:50:22;18.20;99.90
23715;DHT22;12036;50.858;4.472;2023-07-31T09:52:48;18.10;99.90
23715;DHT22;12036;50.858;4.472;2023-07-31T09:55:13;18.10;99.90
23715;DHT22;12036;50.858;4.472;2023-07-31T09:57:45;18.00;99.90
23715;DHT22;12036;50.858;4.472;2023-07-31T10:00:12;18.00;99.90
23715;DHT22;12036;50.858;4.472;2023-07-31T10:02:38;18.10;99.90
23715;DHT22;12036;50.858;4.472;2023-07-31T10:05:05;18.20;99.90
23715;DHT22;12036;50.858;4.472;2023-07-31T10:07:36;18.20;99.90
23715;DHT22;12036;50.858;4.472;2023-07-31T10:10:04;18.10;99.90
23715;DHT22;12036;50.858;4.472;2023-07-31T10:12:32;18.00;99.90
23715;DHT22;12036;50.858;4.472;2023-07-31T10:14:59;17.90;99.90
23715;DHT22;12036;50.858;4.472;2023-07-31T10:17:26;18.00;99.90
23715;DHT22;12036;50.858;4.472;2023-07-31T10:19:53;18.00;99.90
23715;DHT22;12036;50.858;4.472;2023-07-31T10:22:20;18.00;99.90
23715;DHT22;12036;50.858;4.472;2023-07-31T10:24:46;18.20;99.90
23715;DHT22;12036;50.858;4.472;2023-07-31T10:27:13;18.10;99.90
23715;DHT22;12036;50.858;4.472;2023-07-31T10:29:41;18.20;99.90
23715;DHT22;12036;50.858;4.472;2023-07-31T10:32:09;18.40;99.90
23715;DHT22;12036;50.858;4.472;2023-07-31T10:34:38;18.50;99.90
23715;DHT22;12036;50.858;4.472;2023-07-31T10:37:20;18.60;99.90
23715;DHT22;12036;50.858;4.472;2023-07-31T10:40:12;18.70;99.90
23715;DHT22;12036;50.858;4.472;2023-07-31T10:42:51;18.80;99.90
23715;DHT22;12036;50.858;4.472;2023-07-31T10:45:38;18.80;99.90
23715;DHT22;12036;50.858;4.472;2023-07-31T10:48:06;18.80;99.90
23715;DHT22;12036;50.858;4.472;2023-07-31T10:50:37;18.80;99.90
23715;DHT22;12036;50.858;4.472;2023-07-31T10:53:03;18.80;99.90
23715;DHT22;12036;50.858;4.472;2023-07-31T10:55:42;18.90;99.90
23715;DHT22;12036;50.858;4.472;2023-07-31T10:58:11;19.20;99.90
23715;DHT22;12036;50.858;4.472;2023-07-31T11:00:41;19.20;99.90
23715;DHT22;12036;50.858;4.472;2023-07-31T11:03:08;19.30;99.90
23715;DHT22;12036;50.858;4.472;2023-07-31T11:05:59;19.20;99.90
23715;DHT22;12036;50.858;4.472;2023-07-31T11:08:43;19.10;99.90
23715;DHT22;12036;50.858;4.472;2023-07-31T11:11:12;19.10;99.90
23715;DHT22;12036;50.858;4.472;2023-07-31T11:13:51;19.10;99.90
23715;DHT22;12036;50.858;4.472;2023-07-31T11:16:24;19.10;99.90
23715;DHT22;12036;50.858;4.472;2023-07-31T11:18:50;19.40;99.90
23715;DHT22;12036;50.858;4.472;2023-07-31T11:21:25;19.40;99.90
23715;DHT22;12036;50.858;4.472;2023-07-31T11:23:53;19.60;99.90
23715;DHT22;12036;50.858;4.472;2023-07-31T11:26:19;19.80;99.90
23715;DHT22;12036;50.858;4.472;2023-07-31T11:28:49;19.90;99.90
23715;DHT22;12036;50.858;4.472;2023-07-31T11:31:15;20.00;99.90
23715;DHT22;12036;50.858;4.472;2023-07-31T11:33:40;20.20;99.90
23715;DHT22;12036;50.858;4.472;2023-07-31T11:36:15;20.20;99.90
23715;DHT22;12036;50.858;4.472;2023-07-31T11:38:41;20.20;99.90
23715;DHT22;12036;50.858;4.472;2023-07-31T11:41:07;20.10;99.90
23715;DHT22;12036;50.858;4.472;2023-07-31T11:43:33;20.10;99.90
23715;DHT22;12036;50.858;4.472;2023-07-31T11:46:00;20.30;99.90
23715;DHT22;12036;50.858;4.472;2023-07-31T11:48:33;20.30;99.90
23715;DHT22;12036;50.858;4.472;2023-07-31T11:51:02;20.20;99.90
23715;DHT22;12036;50.858;4.472;2023-07-31T11:53:33;20.00;99.90
23715;DHT22;12036;50.858;4.472;2023-07-31T11:56:01;19.90;99.90
23715;DHT22;12036;50.858;4.472;2023-07-31T11:58:29;19.90;99.90
23715;DHT22;12036;50.858;4.472;2023-07-31T12:00:57;19.90;99.90
23715;DHT22;12036;50.858;4.472;2023-07-31T12:03:23;20.00;99.90
23715;DHT22;12036;50.858;4.472;2023-07-31T12:05:49;20.10;99.90
23715;DHT22;12036;50.858;4.472;2023-07-31T12:08:15;20.00;99.90
23715;DHT22;12036;50.858;4.472;2023-07-31T12:10:41;20.10;99.90
23715;DHT22;12036;50.858;4.472;2023-07-31T12:13:24;20.30;99.90
23715;DHT22;12036;50.858;4.472;2023-07-31T12:15:58;20.50;99.90
23715;DHT22;12036;50.858;4.472;2023-07-31T12:18:25;20.50;99.90
23715;DHT22;12036;50.858;4.472;2023-07-31T12:20:56;20.50;99.90
23715;DHT22;12036;50.858;4.472;2023-07-31T12:23:29;20.30;99.90
23715;DHT22;12036;50.858;4.472;2023-07-31T12:28:28;20.10;99.90
23715;DHT22;12036;50.858;4.472;2023-07-31T12:30:57;20.00;99.90
23715;DHT22;12036;50.858;4.472;2023-07-31T12:33:33;20.10;99.90
23715;DHT22;12036;50.858;4.472;2023-07-31T12:36:02;20.00;99.90
23715;DHT22;12036;50.858;4.472;2023-07-31T12:38:28;20.10;99.90
23715;DHT22;12036;50.858;4.472;2023-07-31T12:40:54;20.10;99.90
23715;DHT22;12036;50.858;4.472;2023-07-31T12:43:20;20.20;99.90
23715;DHT22;12036;50.858;4.472;2023-07-31T12:45:45;20.20;99.90
23715;DHT22;12036;50.858;4.472;2023-07-31T12:48:12;20.20;99.90
23715;DHT22;12036;50.858;4.472;2023-07-31T12:50:38;20.20;99.90
23715;DHT22;12036;50.858;4.472;2023-07-31T12:53:04;20.20;99.90
23715;DHT22;12036;50.858;4.472;2023-07-31T12:55:30;20.20;99.90
23715;DHT22;12036;50.858;4.472;2023-07-31T12:57:56;20.30;99.90
23715;DHT22;12036;50.858;4.472;2023-07-31T13:00:22;20.20;99.90
23715;DHT22;12036;50.858;4.472;2023-07-31T13:02:47;20.20;99.90
23715;DHT22;12036;50.858;4.472;2023-07-31T13:05:14;20.20;99.90
23715;DHT22;12036;50.858;4.472;2023-07-31T13:07:40;20.10;99.90
23715;DHT22;12036;50.858;4.472;2023-07-31T13:10:06;20.10;99.90
23715;DHT22;12036;50.858;4.472;2023-07-31T13:12:32;20.10;99.90
23715;DHT22;12036;50.858;4.472;2023-07-31T13:14:58;20.00;99.90
23715;DHT22;12036;50.858;4.472;2023-07-31T13:17:24;19.90;99.90
23715;DHT22;12036;50.858;4.472;2023-07-31T13:19:49;20.00;99.90
23715;DHT22;12036;50.858;4.472;2023-07-31T13:22:15;19.90;99.90
23715;DHT22;12036;50.858;4.472;2023-07-31T13:24:41;19.70;99.90
23715;DHT22;12036;50.858;4.472;2023-07-31T13:27:06;19.50;99.90
23715;DHT22;12036;50.858;4.472;2023-07-31T13:29:32;19.50;99.90
23715;DHT22;12036;50.858;4.472;2023-07-31T13:31:57;19.30;99.90
23715;DHT22;12036;50.858;4.472;2023-07-31T13:34:23;19.20;99.90
23715;DHT22;12036;50.858;4.472;2023-07-31T13:36:49;19.20;99.90
23715;DHT22;12036;50.858;4.472;2023-07-31T13:39:14;19.10;99.90
23715;DHT22;12036;50.858;4.472;2023-07-31T13:41:40;18.90;99.90
23715;DHT22;12036;50.858;4.472;2023-07-31T13:44:06;18.80;99.90
23715;DHT22;12036;50.858;4.472;2023-07-31T13:46:31;18.70;99.90
23715;DHT22;12036;50.858;4.472;2023-07-31T13:48:58;18.50;99.90
23715;DHT22;12036;50.858;4.472;2023-07-31T13:51:25;18.40;99.90
23715;DHT22;12036;50.858;4.472;2023-07-31T13:53:52;18.40;99.90
23715;DHT22;12036;50.858;4.472;2023-07-31T13:56:18;18.30;99.90
23715;DHT22;12036;50.858;4.472;2023-07-31T13:58:44;18.30;99.90
23715;DHT22;12036;50.858;4.472;2023-07-31T14:01:09;18.20;99.90
23715;DHT22;12036;50.858;4.472;2023-07-31T14:03:35;18.20;99.90
23715;DHT22;12036;50.858;4.472;2023-07-31T14:06:00;18.20;99.90
23715;DHT22;12036;50.858;4.472;2023-07-31T14:08:26;18.10;99.90
23715;DHT22;12036;50.858;4.472;2023-07-31T14:10:52;18.10;99.90
23715;DHT22;12036;50.858;4.472;2023-07-31T14:13:17;18.10;99.90
23715;DHT22;12036;50.858;4.472;2023-07-31T14:15:43;18.10;99.90
23715;DHT22;12036;50.858;4.472;2023-07-31T14:18:09;18.10;99.90
23715;DHT22;12036;50.858;4.472;2023-07-31T14:20:35;18.10;99.90
23715;DHT22;12036;50.858;4.472;2023-07-31T14:23:02;18.10;99.90
23715;DHT22;12036;50.858;4.472;2023-07-31T14:25:28;17.90;99.90
23715;DHT22;12036;50.858;4.472;2023-07-31T14:27:54;17.90;99.90
23715;DHT22;12036;50.858;4.472;2023-07-31T14:30:19;17.80;99.90
23715;DHT22;12036;50.858;4.472;2023-07-31T14:32:45;17.90;99.90
23715;DHT22;12036;50.858;4.472;2023-07-31T14:35:11;17.90;99.90
23715;DHT22;12036;50.858;4.472;2023-07-31T14:37:38;17.80;99.90
23715;DHT22;12036;50.858;4.472;2023-07-31T14:40:04;17.90;99.90
23715;DHT22;12036;50.858;4.472;2023-07-31T14:42:30;17.90;99.90
23715;DHT22;12036;50.858;4.472;2023-07-31T14:44:56;17.80;99.90
23715;DHT22;12036;50.858;4.472;2023-07-31T14:47:21;17.80;99.90
23715;DHT22;12036;50.858;4.472;2023-07-31T14:49:47;17.80;99.90
23715;DHT22;12036;50.858;4.472;2023-07-31T14:52:13;17.80;99.90
23715;DHT22;12036;50.858;4.472;2023-07-31T14:54:38;17.90;99.90
23715;DHT22;12036;50.858;4.472;2023-07-31T14:57:04;17.80;99.90
23715;DHT22;12036;50.858;4.472;2023-07-31T14:59:30;17.80;99.90
23715;DHT22;12036;50.858;4.472;2023-07-31T15:01:55;17.80;99.90
23715;DHT22;12036;50.858;4.472;2023-07-31T15:04:21;17.80;99.90
23715;DHT22;12036;50.858;4.472;2023-07-31T15:06:47;17.80;99.90
23715;DHT22;12036;50.858;4.472;2023-07-31T15:09:13;17.80;99.90
23715;DHT22;12036;50.858;4.472;2023-07-31T15:11:38;17.80;99.90
23715;DHT22;12036;50.858;4.472;2023-07-31T15:14:04;17.70;99.90
23715;DHT22;12036;50.858;4.472;2023-07-31T15:16:30;17.70;99.90
23715;DHT22;12036;50.858;4.472;2023-07-31T15:18:57;17.70;99.90
23715;DHT22;12036;50.858;4.472;2023-07-31T15:21:22;17.80;99.90
23715;DHT22;12036;50.858;4.472;2023-07-31T15:23:48;17.70;99.90
23715;DHT22;12036;50.858;4.472;2023-07-31T15:26:14;17.70;99.90
23715;DHT22;12036;50.858;4.472;2023-07-31T15:28:39;17.70;99.90
23715;DHT22;12036;50.858;4.472;2023-07-31T15:31:05;17.70;99.90
23715;DHT22;12036;50.858;4.472;2023-07-31T15:33:30;17.80;99.90